createdAt,value
2023-03-29T00:03:15.286Z,22.5
2023-03-29T00:08:17.472Z,22.4
2023-03-29T00:13:21.095Z,22.3
2023-03-29T00:18:23.300Z,22.3
2023-03-29T00:23:25.443Z,22.3
2023-03-29T00:28:28.305Z,22.2
2023-03-29T00:33:31.959Z,22.2
2023-03-29T00:38:34.109Z,22.1
2023-03-29T00:43:36.297Z,22.1
2023-03-29T00:48:39.187Z,22.1
2023-03-29T00:53:42.254Z,22.1
2023-03-29T00:58:44.492Z,22
2023-03-29T01:03:46.838Z,22
2023-03-29T01:08:48.792Z,22
2023-03-29T01:13:51.054Z,22
2023-03-29T01:18:53.215Z,21.9
2023-03-29T01:23:56.259Z,21.9
2023-03-29T01:28:59.998Z,21.9
2023-03-29T01:39:11.142Z,21.8
2023-03-29T01:44:13.246Z,21.8
2023-03-29T01:49:15.461Z,21.7
2023-03-29T01:54:19.141Z,21.7
2023-03-29T01:59:21.262Z,21.7
2023-03-29T02:04:23.392Z,21.7
2023-03-29T02:09:26.305Z,21.7
2023-03-29T02:14:29.257Z,21.6
2023-03-29T02:19:31.372Z,21.6
2023-03-29T02:24:34.289Z,21.6
2023-03-29T02:29:37.147Z,21.6
2023-03-29T02:34:39.292Z,21.5
2023-03-29T02:39:41.443Z,21.5
2023-03-29T02:44:43.548Z,21.5
2023-03-29T02:49:45.676Z,21.5
2023-03-29T02:54:47.826Z,21.4
2023-03-29T02:59:49.954Z,21.4
2023-03-29T03:04:52.091Z,21.4
2023-03-29T03:09:54.311Z,21.3
2023-03-29T03:14:56.430Z,21.3
2023-03-29T03:19:58.682Z,21.3
2023-03-29T03:25:01.606Z,21.3
2023-03-29T03:30:03.701Z,21.2
2023-03-29T03:35:05.825Z,21.2
2023-03-29T03:40:08.737Z,21.2
2023-03-29T03:45:10.846Z,21.2
2023-03-29T03:50:13.725Z,21.2
2023-03-29T03:55:15.912Z,21.1
2023-03-29T04:00:18.816Z,21.1
2023-03-29T04:05:20.947Z,21.1
2023-03-29T04:10:23.116Z,21.1
2023-03-29T04:15:29.867Z,21
2023-03-29T04:20:33.593Z,21
2023-03-29T04:25:35.819Z,20.9
2023-03-29T04:30:39.509Z,20.7
2023-03-29T04:35:43.287Z,20.5
2023-03-29T04:40:46.214Z,20.4
2023-03-29T04:45:48.443Z,20.4
2023-03-29T04:50:50.739Z,20.5
2023-03-29T04:55:52.993Z,20.7
2023-03-29T05:00:55.227Z,21
2023-03-29T05:05:57.494Z,21.4
2023-03-29T05:11:00.571Z,21.8
2023-03-29T05:16:04.096Z,22.2
2023-03-29T05:21:07.037Z,22.7
2023-03-29T05:26:10.775Z,23.1
2023-03-29T05:31:14.807Z,23.4
2023-03-29T05:36:15.292Z,23.7
2023-03-29T05:41:18.178Z,23.8
2023-03-29T05:46:20.418Z,23.8
2023-03-29T05:51:24.892Z,23.8
2023-03-29T05:56:27.143Z,23.8
2023-03-29T06:01:30.862Z,23.8
2023-03-29T06:06:33.112Z,23.7
2023-03-29T06:11:36.073Z,23.7
2023-03-29T06:16:40.743Z,23.6
2023-03-29T06:21:43.670Z,23.5
2023-03-29T06:26:47.747Z,23.4
2023-03-29T06:31:54.892Z,23.2
2023-03-29T06:36:57.282Z,23.1
2023-03-29T06:42:02.072Z,22.9
2023-03-29T06:47:02.557Z,22.8
2023-03-29T06:52:07.495Z,22.7
2023-03-29T06:57:09.937Z,22.6
2023-03-29T07:02:12.144Z,22.5
2023-03-29T07:07:14.427Z,22.4
2023-03-29T07:12:17.389Z,22.3
2023-03-29T07:17:19.487Z,22.3
2023-03-29T07:22:21.645Z,22.2
2023-03-29T07:27:24.571Z,22.1
2023-03-29T07:32:26.778Z,22.1
2023-03-29T07:37:28.830Z,22
2023-03-29T07:42:31.934Z,21.9
2023-03-29T07:47:34.095Z,21.9
2023-03-29T07:52:37.027Z,21.8
2023-03-29T07:57:39.302Z,21.8
2023-03-29T08:02:41.612Z,21.8
2023-03-29T08:07:44.501Z,21.8
2023-03-29T08:12:47.465Z,21.8
2023-03-29T08:17:49.672Z,21.8
2023-03-29T08:22:51.795Z,21.9
2023-03-29T08:27:55.508Z,21.9
2023-03-29T08:32:57.629Z,22.1
2023-03-29T08:37:59.912Z,22.1
2023-03-29T08:43:02.939Z,22.2
2023-03-29T08:48:05.084Z,22.3
2023-03-29T08:53:07.316Z,22.3
2023-03-29T08:58:09.522Z,22.3
2023-03-29T09:03:12.584Z,22.3
2023-03-29T09:08:15.510Z,22.3
2023-03-29T09:18:26.108Z,22.1
2023-03-29T09:23:32.860Z,21.8
2023-03-29T09:28:35.030Z,21.6
2023-03-29T09:33:38.043Z,21.3
2023-03-29T09:38:40.220Z,21.2
2023-03-29T09:43:44.705Z,21.2
2023-03-29T09:48:47.093Z,21.3
2023-03-29T09:53:50.790Z,21.5
2023-03-29T09:58:53.083Z,21.8
2023-03-29T10:03:55.294Z,22.1
2023-03-29T10:08:57.373Z,22.5
2023-03-29T10:13:59.521Z,23
2023-03-29T10:19:01.804Z,23.4
2023-03-29T10:24:04.688Z,23.8
2023-03-29T10:29:07.598Z,24.1
2023-03-29T10:34:10.531Z,24.2
2023-03-29T10:39:12.692Z,24.3
2023-03-29T10:49:23.797Z,24.4
2023-03-29T10:54:27.520Z,24.3
2023-03-29T10:59:29.806Z,24.3
2023-03-29T11:04:32.084Z,24.3
2023-03-29T11:09:34.368Z,24.2
2023-03-29T11:14:38.050Z,24.2
2023-03-29T11:19:40.973Z,24.1
2023-03-29T11:24:43.853Z,24
2023-03-29T11:29:45.981Z,23.9
2023-03-29T11:34:48.160Z,23.8
2023-03-29T11:39:50.291Z,23.8
2023-03-29T11:44:54.145Z,23.7
2023-03-29T11:49:55.352Z,23.6
2023-03-29T11:54:59.702Z,23.5
2023-03-29T12:00:01.840Z,23.4
2023-03-29T12:05:04.754Z,23.3
2023-03-29T12:10:06.895Z,23.2
2023-03-29T12:15:09.801Z,23.2
2023-03-29T12:20:11.963Z,23.1
2023-03-29T12:25:14.680Z,23
2023-03-29T12:30:16.247Z,23
2023-03-29T12:35:18.451Z,22.9
2023-03-29T12:40:23.747Z,22.9
2023-03-29T12:45:27.549Z,22.9
2023-03-29T12:50:31.369Z,22.8
2023-03-29T12:55:33.615Z,22.7
2023-03-29T13:00:40.539Z,22.7
2023-03-29T13:05:42.779Z,22.6
2023-03-29T13:10:45.578Z,22.6
2023-03-29T13:15:47.723Z,22.6
2023-03-29T13:20:50.665Z,22.6
2023-03-29T13:25:55.967Z,22.6
2023-03-29T13:30:58.222Z,22.6
2023-03-29T13:36:00.676Z,22.6
2023-03-29T13:41:03.366Z,22.6
2023-03-29T13:46:07.028Z,22.5
2023-03-29T13:51:09.177Z,22.5
2023-03-29T13:56:12.049Z,22.5
2023-03-29T14:01:15.693Z,22.4
2023-03-29T14:06:17.857Z,22.4
2023-03-29T14:11:19.965Z,22.4
2023-03-29T14:16:22.135Z,22.4
2023-03-29T14:21:25.104Z,22.4
2023-03-29T14:26:28.059Z,22.4
2023-03-29T14:31:31.746Z,22.4
2023-03-29T14:36:34.733Z,22.4
2023-03-29T14:41:36.759Z,22.5
2023-03-29T14:46:39.687Z,22.5
2023-03-29T14:51:41.865Z,22.6
2023-03-29T14:56:44.024Z,22.6
2023-03-29T15:01:46.299Z,22.5
2023-03-29T15:06:49.170Z,22.5
2023-03-29T15:11:52.803Z,22.5
2023-03-29T15:16:55.081Z,22.5
2023-03-29T15:22:01.101Z,22.5
2023-03-29T15:27:04.150Z,22.5
2023-03-29T15:32:06.331Z,22.5
2023-03-29T15:37:13.153Z,22.5
2023-03-29T15:42:19.837Z,22.5
2023-03-29T15:47:23.491Z,22.4
2023-03-29T15:52:28.778Z,22.4
2023-03-29T15:57:30.972Z,22.4
2023-03-29T16:02:33.160Z,22.4
2023-03-29T16:07:36.041Z,22.4
2023-03-29T16:12:39.066Z,22.4
2023-03-29T16:17:45.872Z,22.5
2023-03-29T16:22:49.577Z,22.5
2023-03-29T16:27:52.392Z,22.5
2023-03-29T16:32:55.316Z,22.6
2023-03-29T16:37:58.374Z,22.6
2023-03-29T16:43:00.575Z,22.6
2023-03-29T16:48:04.420Z,22.5
2023-03-29T16:53:06.548Z,22.5
2023-03-29T16:58:08.879Z,22.4
2023-03-29T17:03:10.842Z,22.3
2023-03-29T17:08:12.975Z,22.3
2023-03-29T17:13:15.974Z,22.4
2023-03-29T17:18:18.122Z,22.3
2023-03-29T17:23:21.136Z,22.3
2023-03-29T17:28:23.347Z,22.2
2023-03-29T17:33:26.456Z,22.1
2023-03-29T17:38:29.277Z,22.1
2023-03-29T17:43:31.386Z,22.2
2023-03-29T17:48:33.551Z,22.3
2023-03-29T17:53:37.189Z,22.6
2023-03-29T17:58:39.406Z,22.9
2023-03-29T18:03:41.626Z,23.3
2023-03-29T18:08:43.953Z,23.7
2023-03-29T18:13:48.349Z,24
2023-03-29T18:18:52.114Z,24.3
2023-03-29T18:23:55.609Z,24.5
2023-03-29T18:29:01.055Z,24.6
2023-03-29T18:34:03.949Z,24.6
2023-03-29T18:39:08.499Z,24.7
2023-03-29T18:44:10.636Z,24.7
2023-03-29T18:49:12.900Z,24.7
2023-03-29T18:59:28.470Z,24.6
2023-03-29T19:04:30.581Z,24.5
2023-03-29T19:09:32.712Z,24.4
2023-03-29T19:14:36.527Z,24.3
2023-03-29T19:19:38.760Z,24.2
2023-03-29T19:24:45.536Z,24.2
2023-03-29T19:29:49.317Z,24.1
2023-03-29T19:34:52.278Z,24
2023-03-29T19:39:54.593Z,23.9
2023-03-29T19:44:56.872Z,23.9
2023-03-29T19:49:59.816Z,23.8
2023-03-29T19:55:02.877Z,23.8
2023-03-29T20:00:05.049Z,23.7
2023-03-29T20:05:07.942Z,23.7
2023-03-29T20:10:10.159Z,23.6
2023-03-29T20:15:12.350Z,23.6
2023-03-29T20:20:15.432Z,23.5
2023-03-29T20:25:18.358Z,23.5
2023-03-29T20:30:21.286Z,23.4
2023-03-29T20:35:23.399Z,23.4
2023-03-29T20:40:27.908Z,23.4
2023-03-29T20:45:42.883Z,23.4
2023-03-29T20:50:36.834Z,23.4
2023-03-29T20:55:38.993Z,23.4
2023-03-29T21:00:45.779Z,23.5
2023-03-29T21:05:47.880Z,23.6
2023-03-29T21:10:50.797Z,23.8
2023-03-29T21:15:53.059Z,23.9
2023-03-29T21:20:55.158Z,24
2023-03-29T21:25:57.320Z,24.1
2023-03-29T21:30:59.677Z,24.1
2023-03-29T21:36:04.118Z,24.1
2023-03-29T21:41:07.059Z,24.1
2023-03-29T21:46:09.390Z,24
2023-03-29T21:51:12.280Z,23.9
2023-03-29T21:56:15.206Z,23.9
2023-03-29T22:01:18.919Z,23.9
2023-03-29T22:06:21.071Z,23.9
2023-03-29T22:11:23.236Z,23.9
2023-03-29T22:16:26.173Z,24
2023-03-29T22:21:29.100Z,24
2023-03-29T22:26:32.761Z,23.9
2023-03-29T22:31:35.064Z,23.9
2023-03-29T22:36:37.867Z,23.9
2023-03-29T22:41:40.906Z,23.8
2023-03-29T22:46:43.089Z,23.8
2023-03-29T22:51:45.251Z,23.7
2023-03-29T22:56:47.474Z,23.7
2023-03-29T23:01:50.369Z,23.6
2023-03-29T23:06:52.461Z,23.6
2023-03-29T23:11:55.442Z,23.6
2023-03-29T23:16:58.429Z,23.5
2023-03-29T23:22:00.554Z,23.5
2023-03-29T23:27:07.550Z,23.5
2023-03-29T23:32:09.894Z,23.5
2023-03-29T23:37:12.025Z,23.5
2023-03-29T23:42:15.688Z,23.5
2023-03-29T23:47:19.548Z,23.4
2023-03-29T23:52:21.668Z,23.4
2023-03-29T23:57:24.022Z,23.4
